Terminal Aerodrome Forecast
Issued by NWS Mt. Holly, NJ

Home | Current Version | Previous Version | Text Only | Print | Product List | Glossary On
Versions: 1 2 3 4 5 6 7 8 9 10 11 12 13 14 15 16 17 18 19 20 21 22 23 24 25 26 27 28 29
000
FTUS41 KPHI 282201 AAB
TAFTTN
TAF AMD
KTTN 282201Z 2822/2918 13004KT 6SM -RA BR OVC035
      TEMPO 2822/2823 1SM RA BR
     FM290000 09006KT 5SM -RA BR BKN025 OVC050
     FM290300 07006KT 3SM BR OVC009
     FM291200 10010KT 5SM BR OVC015
     FM291600 10010KT P6SM OVC030=

USA.gov is the U.S. government's official web portal to all federal, state and local government web resources and services.